createdAt,value
2019-04-16T00:02:48.488Z,49.83
2019-04-16T00:05:51.449Z,49.83
2019-04-16T00:08:46.272Z,49.94
2019-04-16T00:11:47.212Z,50.03
2019-04-16T00:14:41.692Z,50.03
2019-04-16T00:17:31.504Z,50.12
2019-04-16T00:20:22.654Z,50.22
2019-04-16T00:23:18.427Z,50.25
2019-04-16T00:26:08.260Z,50.20
2019-04-16T00:29:01.596Z,50.14
2019-04-16T00:31:53.551Z,50.13
2019-04-16T00:34:44.865Z,50.15
2019-04-16T00:37:35.519Z,50.23
2019-04-16T00:40:26.603Z,50.21
2019-04-16T00:43:17.149Z,50.25
2019-04-16T00:46:08.310Z,50.21
2019-04-16T00:48:58.089Z,50.15
2019-04-16T00:51:48.521Z,50.11
2019-04-16T00:54:39.216Z,50.02
2019-04-16T00:57:30.098Z,50.07
2019-04-16T01:00:20.054Z,50.03
2019-04-16T01:03:10.444Z,50.08
2019-04-16T01:06:00.471Z,50.00
2019-04-16T01:08:54.753Z,49.76
2019-04-16T01:11:41.936Z,49.92
2019-04-16T01:14:32.162Z,49.93
2019-04-16T01:17:22.270Z,49.94
2019-04-16T01:20:13.113Z,49.96
2019-04-16T01:23:03.475Z,50.01
2019-04-16T01:25:55.664Z,49.98
2019-04-16T01:28:51.055Z,49.98
2019-04-16T01:31:58.517Z,50.03
2019-04-16T01:35:18.653Z,50.01
2019-04-16T01:38:20.316Z,50.05
2019-04-16T01:41:12.151Z,50.24
2019-04-16T01:44:01.978Z,50.34
2019-04-16T01:46:52.018Z,50.29
2019-04-16T01:49:42.157Z,50.27
2019-04-16T01:52:32.313Z,50.27
2019-04-16T01:55:25.547Z,50.26
2019-04-16T01:58:13.597Z,50.29
2019-04-16T02:01:04.144Z,50.29
2019-04-16T02:03:53.495Z,50.30
2019-04-16T02:06:42.844Z,50.29
2019-04-16T02:09:34.713Z,50.26
2019-04-16T02:12:24.356Z,50.21
2019-04-16T02:15:14.214Z,50.17
2019-04-16T02:18:04.073Z,50.22
2019-04-16T02:20:53.883Z,50.17
2019-04-16T02:23:45.402Z,50.15
2019-04-16T02:26:35.688Z,50.17
2019-04-16T02:29:29.802Z,50.17
2019-04-16T02:32:16.638Z,50.21
2019-04-16T02:35:07.293Z,50.25
2019-04-16T02:37:57.389Z,50.22
2019-04-16T02:40:51.988Z,50.26
2019-04-16T02:43:41.030Z,50.25
2019-04-16T02:46:32.484Z,50.19
2019-04-16T02:49:24.486Z,50.30
2019-04-16T02:52:20.784Z,50.29
2019-04-16T02:55:42.927Z,50.35
2019-04-16T02:58:34.399Z,50.33
2019-04-16T03:02:00.074Z,50.37
2019-04-16T03:04:58.216Z,50.44
2019-04-16T03:07:47.312Z,50.45
2019-04-16T03:10:37.415Z,50.48
2019-04-16T03:13:28.263Z,50.47
2019-04-16T03:16:30.975Z,50.45
2019-04-16T03:19:25.469Z,50.37
2019-04-16T03:22:15.142Z,50.50
2019-04-16T03:25:05.680Z,50.46
2019-04-16T03:27:55.765Z,50.41
2019-04-16T03:30:45.338Z,50.41
2019-04-16T03:33:35.520Z,50.43
2019-04-16T03:36:26.487Z,50.42
2019-04-16T03:39:16.615Z,50.41
2019-04-16T03:42:06.853Z,50.41
2019-04-16T03:44:56.680Z,50.37
2019-04-16T03:47:50.941Z,50.40
2019-04-16T03:50:37.558Z,50.47
2019-04-16T03:53:27.553Z,50.51
2019-04-16T03:56:17.563Z,50.57
2019-04-16T03:59:10.731Z,50.56
2019-04-16T04:01:59.025Z,50.58
2019-04-16T04:04:57.580Z,50.66
2019-04-16T04:07:45.874Z,50.71
2019-04-16T04:10:37.074Z,50.82
2019-04-16T04:13:26.162Z,50.90
2019-04-16T04:16:16.430Z,51.00
2019-04-16T04:19:06.636Z,51.09
2019-04-16T04:21:56.140Z,51.13
2019-04-16T04:24:45.902Z,51.18
2019-04-16T04:27:35.635Z,51.32
2019-04-16T04:30:28.692Z,51.37
2019-04-16T04:33:40.909Z,51.44
2019-04-16T04:36:28.418Z,51.44
2019-04-16T04:39:18.427Z,51.57
2019-04-16T04:42:08.682Z,51.57
2019-04-16T04:44:59.275Z,51.56
2019-04-16T04:47:51.590Z,51.58
2019-04-16T04:50:41.251Z,51.57
2019-04-16T04:53:31.513Z,51.58
2019-04-16T04:56:21.467Z,51.52
2019-04-16T04:59:11.496Z,51.54
2019-04-16T05:02:02.584Z,51.47
2019-04-16T05:04:57.886Z,51.39
2019-04-16T05:07:47.773Z,51.31
2019-04-16T05:10:42.791Z,51.23
2019-04-16T05:13:29.855Z,51.08
2019-04-16T05:16:19.833Z,50.95
2019-04-16T05:19:13.802Z,50.78
2019-04-16T05:22:00.835Z,50.66
2019-04-16T05:24:51.005Z,50.54
2019-04-16T05:27:41.586Z,50.41
2019-04-16T05:30:31.495Z,50.06
2019-04-16T05:33:21.931Z,49.93
2019-04-16T05:36:14.568Z,49.64
2019-04-16T05:39:06.656Z,49.40
2019-04-16T05:41:57.059Z,49.21
2019-04-16T05:44:46.730Z,49.11
2019-04-16T05:47:36.712Z,48.81
2019-04-16T05:50:29.650Z,48.31
2019-04-16T05:53:18.634Z,48.13
2019-04-16T05:56:24.095Z,47.94
2019-04-16T05:59:13.295Z,47.71
2019-04-16T06:02:25.301Z,47.02
2019-04-16T06:05:15.397Z,46.92
2019-04-16T06:08:11.951Z,45.71
2019-04-16T06:11:01.770Z,45.52
2019-04-16T06:14:00.315Z,45.59
2019-04-16T06:17:19.000Z,45.70
2019-04-16T06:20:19.568Z,45.08
2019-04-16T06:23:24.735Z,45.40
2019-04-16T06:26:34.022Z,45.18
2019-04-16T06:29:33.706Z,43.81
2019-04-16T06:32:31.874Z,44.36
2019-04-16T06:35:43.396Z,43.98
2019-04-16T06:38:37.746Z,42.93
2019-04-16T06:41:58.831Z,43.54
2019-04-16T06:44:54.091Z,43.49
2019-04-16T06:48:13.125Z,43.01
2019-04-16T06:51:32.935Z,42.89
2019-04-16T06:54:34.378Z,42.11
2019-04-16T06:57:42.958Z,41.17
2019-04-16T07:01:11.292Z,41.60
2019-04-16T07:04:08.621Z,41.56
2019-04-16T07:07:16.527Z,40.99
2019-04-16T07:10:13.919Z,41.02
2019-04-16T07:13:04.019Z,40.33
2019-04-16T07:15:56.896Z,40.09
2019-04-16T07:18:45.935Z,39.40
2019-04-16T07:21:35.763Z,38.73
2019-04-16T07:24:30.194Z,39.06
2019-04-16T07:27:20.051Z,38.08
2019-04-16T07:30:19.709Z,37.02
2019-04-16T07:33:15.990Z,36.89
2019-04-16T07:36:24.219Z,34.33
2019-04-16T07:39:29.803Z,35.49
2019-04-16T07:42:22.796Z,35.98
2019-04-16T07:45:25.911Z,36.82
2019-04-16T07:48:35.151Z,36.41
2019-04-16T07:51:30.052Z,35.24
2019-04-16T07:54:37.803Z,34.99
2019-04-16T07:57:27.594Z,35.24
2019-04-16T08:00:18.031Z,34.82
2019-04-16T08:03:07.813Z,32.82
2019-04-16T08:05:57.912Z,32.86
2019-04-16T08:08:48.958Z,31.14
2019-04-16T08:11:39.086Z,31.59
2019-04-16T08:14:29.387Z,31.43
2019-04-16T08:17:19.465Z,31.97
2019-04-16T08:20:09.604Z,30.91
2019-04-16T08:23:02.034Z,31.28
2019-04-16T08:26:01.956Z,31.35
2019-04-16T08:28:43.218Z,32.00
2019-04-16T08:31:35.715Z,32.16
2019-04-16T08:34:24.680Z,31.26
2019-04-16T08:37:14.153Z,31.02
2019-04-16T08:40:03.909Z,31.48
2019-04-16T08:42:56.989Z,31.22
2019-04-16T08:45:45.386Z,30.78
2019-04-16T08:48:35.140Z,31.64
2019-04-16T08:51:30.973Z,31.55
2019-04-16T08:54:18.182Z,31.56
2019-04-16T08:57:08.403Z,31.21
2019-04-16T08:59:58.453Z,31.25
2019-04-16T09:02:48.533Z,31.64
2019-04-16T09:05:41.273Z,30.87
2019-04-16T09:08:44.018Z,30.94
2019-04-16T09:11:35.465Z,30.67
2019-04-16T09:14:28.157Z,31.00
2019-04-16T09:17:36.715Z,31.12
2019-04-16T09:20:31.534Z,31.50
2019-04-16T09:23:22.740Z,31.54
2019-04-16T09:26:30.930Z,31.60
2019-04-16T09:29:39.134Z,31.25
2019-04-16T09:33:00.404Z,30.85
2019-04-16T09:36:10.474Z,30.22
2019-04-16T09:39:05.976Z,30.65
2019-04-16T09:41:56.232Z,31.22
2019-04-16T09:44:46.319Z,31.04
2019-04-16T09:47:36.352Z,30.34
2019-04-16T09:50:26.283Z,30.84
2019-04-16T09:53:16.291Z,30.37
2019-04-16T09:56:28.367Z,29.56
2019-04-16T09:59:39.665Z,30.20
2019-04-16T10:02:32.822Z,28.37
2019-04-16T10:05:22.395Z,28.17
2019-04-16T10:08:12.645Z,27.27
2019-04-16T10:11:06.003Z,25.91
2019-04-16T10:13:54.632Z,26.81
2019-04-16T10:16:45.170Z,26.14
2019-04-16T10:19:35.301Z,26.70
2019-04-16T10:22:25.256Z,25.25
2019-04-16T10:25:15.902Z,26.08
2019-04-16T10:28:14.993Z,25.64
2019-04-16T10:31:05.173Z,26.40
2019-04-16T10:33:55.070Z,25.85
2019-04-16T10:36:44.923Z,26.83
2019-04-16T10:39:39.597Z,26.66
2019-04-16T10:42:51.503Z,26.15
2019-04-16T10:45:56.249Z,24.47
2019-04-16T10:48:53.783Z,24.45
2019-04-16T10:52:01.661Z,23.51
2019-04-16T10:55:09.403Z,22.69
2019-04-16T10:58:17.351Z,21.85
2019-04-16T11:01:55.344Z,21.52
2019-04-16T11:05:02.183Z,20.93
2019-04-16T11:07:51.622Z,19.42
2019-04-16T11:10:41.998Z,20.57
2019-04-16T11:13:35.015Z,20.32
2019-04-16T11:16:25.125Z,19.75
2019-04-16T11:19:15.264Z,19.69
2019-04-16T11:22:05.671Z,19.20
2019-04-16T11:24:55.696Z,19.47
2019-04-16T11:27:46.013Z,18.28
2019-04-16T11:30:41.281Z,18.00
2019-04-16T11:33:31.227Z,18.17
2019-04-16T11:36:21.172Z,16.75
2019-04-16T11:39:11.898Z,15.84
2019-04-16T11:42:02.193Z,17.89
2019-04-16T11:44:52.108Z,17.60
2019-04-16T11:47:43.221Z,16.79
2019-04-16T11:50:35.854Z,16.52
2019-04-16T11:53:24.303Z,16.94
2019-04-16T11:56:14.093Z,16.82
2019-04-16T11:59:05.199Z,17.99
2019-04-16T12:02:10.651Z,18.37
2019-04-16T12:05:04.925Z,17.96
2019-04-16T12:08:03.720Z,17.51
2019-04-16T12:11:12.307Z,17.78
2019-04-16T12:14:30.990Z,18.33
2019-04-16T12:17:22.193Z,19.03
2019-04-16T12:20:22.803Z,18.77
2019-04-16T12:23:32.241Z,19.33
2019-04-16T12:26:49.073Z,18.99
2019-04-16T12:29:49.402Z,18.17
2019-04-16T12:32:47.418Z,18.56
2019-04-16T12:35:54.373Z,19.06
2019-04-16T12:38:57.659Z,18.40
2019-04-16T12:42:06.629Z,18.67
2019-04-16T12:45:00.438Z,19.06
2019-04-16T12:48:08.154Z,19.34
2019-04-16T12:51:19.559Z,19.77
2019-04-16T12:54:28.719Z,20.74
2019-04-16T12:57:33.782Z,20.27
2019-04-16T13:00:55.415Z,20.87
2019-04-16T13:03:52.610Z,20.83
2019-04-16T13:06:48.951Z,20.89
2019-04-16T13:09:56.777Z,20.84
2019-04-16T13:13:17.708Z,20.71
2019-04-16T13:16:13.548Z,20.16
2019-04-16T13:19:21.679Z,19.95
2019-04-16T13:22:12.128Z,20.55
2019-04-16T13:25:08.997Z,20.00
2019-04-16T13:27:58.842Z,20.24
2019-04-16T13:30:48.399Z,21.02
2019-04-16T13:33:38.310Z,21.27
2019-04-16T13:36:28.329Z,21.51
2019-04-16T13:39:47.700Z,21.66
2019-04-16T13:42:38.034Z,21.89
2019-04-16T13:45:31.213Z,21.96
2019-04-16T13:48:29.264Z,22.46
2019-04-16T13:51:21.344Z,21.96
2019-04-16T13:54:21.208Z,22.01
2019-04-16T13:57:14.730Z,22.13
2019-04-16T14:00:14.003Z,22.17
2019-04-16T14:03:08.529Z,22.54
2019-04-16T14:05:58.385Z,22.72
2019-04-16T14:08:48.434Z,23.06
2019-04-16T14:11:38.118Z,22.59
2019-04-16T14:14:29.464Z,22.89
2019-04-16T14:17:22.651Z,22.81
2019-04-16T14:20:13.973Z,23.33
2019-04-16T14:23:04.602Z,23.54
2019-04-16T14:25:54.502Z,23.66
2019-04-16T14:28:52.114Z,23.83
2019-04-16T14:31:36.313Z,23.81
2019-04-16T14:35:00.231Z,23.86
2019-04-16T14:37:49.940Z,23.72
2019-04-16T14:40:42.355Z,23.76
2019-04-16T14:43:35.552Z,23.93
2019-04-16T14:46:28.281Z,23.88
2019-04-16T14:49:18.241Z,24.58
2019-04-16T14:52:09.092Z,24.55
2019-04-16T14:55:03.873Z,24.40
2019-04-16T14:58:05.063Z,24.42
2019-04-16T15:01:05.370Z,24.50
2019-04-16T15:04:13.394Z,24.32
2019-04-16T15:07:12.317Z,24.44
2019-04-16T15:10:27.415Z,24.56
2019-04-16T15:13:31.120Z,23.88
2019-04-16T15:16:36.744Z,24.32
2019-04-16T15:19:28.762Z,24.37
2019-04-16T15:22:36.115Z,24.51
2019-04-16T15:25:29.413Z,24.63
2019-04-16T15:28:23.091Z,24.68
2019-04-16T15:31:19.650Z,24.41
2019-04-16T15:34:15.587Z,24.27
2019-04-16T15:37:19.273Z,24.44
2019-04-16T15:40:19.028Z,24.41
2019-04-16T15:43:31.113Z,24.30
2019-04-16T15:46:41.381Z,23.98
2019-04-16T15:49:55.662Z,24.20
2019-04-16T15:53:02.616Z,24.34
2019-04-16T15:55:57.898Z,24.44
2019-04-16T15:59:08.263Z,24.59
2019-04-16T16:02:14.797Z,24.25
2019-04-16T16:05:25.994Z,24.28
2019-04-16T16:08:43.909Z,24.22
2019-04-16T16:11:51.822Z,24.50
2019-04-16T16:14:41.864Z,24.44
2019-04-16T16:17:32.962Z,24.71
2019-04-16T16:20:23.048Z,24.76
2019-04-16T16:23:13.648Z,24.91
2019-04-16T16:26:03.472Z,24.94
2019-04-16T16:28:53.398Z,24.98
2019-04-16T16:31:44.240Z,25.16
2019-04-16T16:34:34.657Z,25.07
2019-04-16T16:37:24.453Z,25.16
2019-04-16T16:40:16.058Z,25.21
2019-04-16T16:43:08.381Z,25.10
2019-04-16T16:46:26.847Z,25.38
2019-04-16T16:49:16.769Z,25.46
2019-04-16T16:52:24.349Z,25.64
2019-04-16T16:55:29.343Z,25.69
2019-04-16T16:58:42.182Z,25.75
2019-04-16T17:01:38.832Z,25.71
2019-04-16T17:04:31.714Z,26.11
2019-04-16T17:07:20.852Z,26.08
2019-04-16T17:10:10.747Z,26.24
2019-04-16T17:13:00.935Z,26.43
2019-04-16T17:15:50.916Z,26.49
2019-04-16T17:18:40.929Z,27.00
2019-04-16T17:21:30.029Z,26.86
2019-04-16T17:24:19.750Z,26.81
2019-04-16T17:27:09.601Z,26.97
2019-04-16T17:29:59.629Z,27.06
2019-04-16T17:32:49.564Z,27.24
2019-04-16T17:35:39.493Z,27.26
2019-04-16T17:38:29.280Z,27.40
2019-04-16T17:41:24.547Z,27.54
2019-04-16T17:44:29.231Z,27.77
2019-04-16T17:47:36.479Z,27.82
2019-04-16T17:50:41.708Z,27.86
2019-04-16T17:53:44.244Z,27.96
2019-04-16T17:57:08.518Z,28.01
2019-04-16T18:00:16.973Z,27.99
2019-04-16T18:03:24.869Z,28.06
2019-04-16T18:06:32.494Z,28.07
2019-04-16T18:09:44.085Z,28.16
2019-04-16T18:12:56.459Z,28.24
2019-04-16T18:15:54.191Z,28.29
2019-04-16T18:18:55.566Z,28.40
2019-04-16T18:22:11.013Z,28.51
2019-04-16T18:25:25.583Z,28.52
2019-04-16T18:28:29.264Z,28.65
2019-04-16T18:31:27.877Z,28.75
2019-04-16T18:34:40.275Z,28.85
2019-04-16T18:37:48.738Z,28.90
2019-04-16T18:40:45.749Z,28.98
2019-04-16T18:43:53.155Z,29.00
2019-04-16T18:47:11.681Z,29.11
2019-04-16T18:50:05.405Z,29.14
2019-04-16T18:52:55.478Z,29.26
2019-04-16T18:55:45.529Z,29.36
2019-04-16T18:58:35.543Z,29.44
2019-04-16T19:01:32.613Z,29.45
2019-04-16T19:04:21.552Z,29.53
2019-04-16T19:07:11.606Z,29.53
2019-04-16T19:10:00.885Z,29.64
2019-04-16T19:12:51.614Z,29.73
2019-04-16T19:15:41.262Z,30.02
2019-04-16T19:18:30.812Z,29.92
2019-04-16T19:21:20.923Z,30.01
2019-04-16T19:24:10.212Z,30.06
2019-04-16T19:27:00.547Z,30.10
2019-04-16T19:29:50.235Z,30.14
2019-04-16T19:32:39.918Z,30.23
2019-04-16T19:35:29.521Z,30.36
2019-04-16T19:38:19.856Z,30.35
2019-04-16T19:41:09.889Z,30.43
2019-04-16T19:43:59.843Z,30.48
2019-04-16T19:46:52.595Z,30.59
2019-04-16T19:49:40.551Z,30.69
2019-04-16T19:52:30.689Z,30.84
2019-04-16T19:55:20.363Z,30.84
2019-04-16T19:58:10.450Z,30.86
2019-04-16T20:01:00.864Z,30.95
2019-04-16T20:03:51.239Z,31.00
2019-04-16T20:06:41.500Z,31.04
2019-04-16T20:09:31.629Z,31.15
2019-04-16T20:12:21.296Z,31.17
2019-04-16T20:15:11.401Z,31.29
2019-04-16T20:18:01.647Z,31.39
2019-04-16T20:20:50.943Z,31.46
2019-04-16T20:23:40.685Z,31.58
2019-04-16T20:26:32.432Z,31.62
2019-04-16T20:29:22.354Z,31.65
2019-04-16T20:32:13.284Z,31.70
2019-04-16T20:35:03.791Z,31.79
2019-04-16T20:37:55.291Z,31.92
2019-04-16T20:40:45.397Z,31.97
2019-04-16T20:43:34.946Z,32.07
2019-04-16T20:46:25.199Z,32.23
2019-04-16T20:49:16.868Z,32.11
2019-04-16T20:52:06.380Z,32.25
2019-04-16T20:54:56.204Z,32.27
2019-04-16T20:57:46.022Z,32.21
2019-04-16T21:00:42.313Z,32.38
2019-04-16T21:03:31.262Z,32.27
2019-04-16T21:06:21.515Z,32.31
2019-04-16T21:09:11.522Z,32.40
2019-04-16T21:12:00.943Z,32.41
2019-04-16T21:14:53.586Z,32.45
2019-04-16T21:17:42.310Z,32.50
2019-04-16T21:20:32.163Z,32.62
2019-04-16T21:23:22.030Z,32.63
2019-04-16T21:26:11.892Z,32.71
2019-04-16T21:29:23.438Z,32.72
2019-04-16T21:32:31.409Z,32.69
2019-04-16T21:35:28.766Z,32.72
2019-04-16T21:38:36.528Z,32.73
2019-04-16T21:41:28.527Z,32.76
2019-04-16T21:44:18.001Z,32.81
2019-04-16T21:47:06.942Z,32.96
2019-04-16T21:49:56.706Z,32.96
2019-04-16T21:52:46.623Z,32.97
2019-04-16T21:55:36.893Z,32.99
2019-04-16T21:58:28.513Z,33.15
2019-04-16T22:01:35.838Z,33.11
2019-04-16T22:04:26.431Z,33.11
2019-04-16T22:07:16.497Z,33.13
2019-04-16T22:10:07.344Z,33.18
2019-04-16T22:12:57.545Z,33.26
2019-04-16T22:15:46.860Z,33.30
2019-04-16T22:18:37.577Z,33.32
2019-04-16T22:21:28.241Z,33.33
2019-04-16T22:24:19.729Z,33.41
2019-04-16T22:27:09.835Z,33.46
2019-04-16T22:29:59.524Z,33.47
2019-04-16T22:32:49.743Z,33.52
2019-04-16T22:35:39.775Z,33.54
2019-04-16T22:38:31.403Z,33.65
2019-04-16T22:41:29.359Z,33.68
2019-04-16T22:44:28.902Z,33.81
2019-04-16T22:47:22.250Z,33.85
2019-04-16T22:50:16.983Z,33.80
2019-04-16T22:53:04.269Z,33.83
2019-04-16T22:55:56.706Z,33.84
2019-04-16T22:58:51.657Z,33.84
2019-04-16T23:01:44.986Z,33.88
2019-04-16T23:04:34.621Z,33.90
2019-04-16T23:07:24.552Z,33.98
2019-04-16T23:10:14.353Z,34.05
2019-04-16T23:13:04.433Z,34.07
2019-04-16T23:15:53.988Z,34.15
2019-04-16T23:18:48.793Z,34.22
2019-04-16T23:21:36.092Z,34.18
2019-04-16T23:24:27.750Z,34.31
2019-04-16T23:27:17.239Z,34.32
2019-04-16T23:30:09.065Z,34.35
2019-04-16T23:33:00.028Z,34.40
2019-04-16T23:35:50.515Z,34.50
2019-04-16T23:38:40.640Z,34.72
2019-04-16T23:41:30.330Z,34.62
2019-04-16T23:44:37.529Z,34.63
2019-04-16T23:47:51.178Z,34.68
2019-04-16T23:51:03.441Z,34.74
2019-04-16T23:53:58.795Z,34.75
2019-04-16T23:57:13.969Z,34.83
